sensor_id;sensor_type;location;lat;lon;timestamp;P1;durP1;ratioP1;P2;durP2;ratioP2
6093;SDS011;19964;42.060;24.700;2024-01-07T00:01:20;57.27;;;32.17;;
6093;SDS011;19964;42.060;24.700;2024-01-07T00:03:47;60.80;;;34.30;;
6093;SDS011;19964;42.060;24.700;2024-01-07T00:06:14;55.40;;;32.13;;
6093;SDS011;19964;42.060;24.700;2024-01-07T00:08:43;69.60;;;39.53;;
6093;SDS011;19964;42.060;24.700;2024-01-07T00:11:10;71.93;;;37.53;;
6093;SDS011;19964;42.060;24.700;2024-01-07T00:13:37;56.37;;;34.13;;
6093;SDS011;19964;42.060;24.700;2024-01-07T00:16:04;56.10;;;32.30;;
6093;SDS011;19964;42.060;24.700;2024-01-07T00:18:31;57.23;;;33.53;;
6093;SDS011;19964;42.060;24.700;2024-01-07T00:20:58;51.30;;;29.07;;
6093;SDS011;19964;42.060;24.700;2024-01-07T00:23:25;58.03;;;31.80;;
6093;SDS011;19964;42.060;24.700;2024-01-07T00:25:53;56.33;;;32.50;;
6093;SDS011;19964;42.060;24.700;2024-01-07T00:28:21;58.77;;;33.87;;
6093;SDS011;19964;42.060;24.700;2024-01-07T00:30:48;51.43;;;29.30;;
6093;SDS011;19964;42.060;24.700;2024-01-07T00:33:15;54.10;;;30.90;;
6093;SDS011;19964;42.060;24.700;2024-01-07T00:35:42;48.40;;;28.87;;
6093;SDS011;19964;42.060;24.700;2024-01-07T00:38:09;51.57;;;30.43;;
6093;SDS011;19964;42.060;24.700;2024-01-07T00:40:35;55.93;;;31.63;;
6093;SDS011;19964;42.060;24.700;2024-01-07T00:43:04;50.67;;;28.57;;
6093;SDS011;19964;42.060;24.700;2024-01-07T00:45:31;48.50;;;28.90;;
6093;SDS011;19964;42.060;24.700;2024-01-07T00:47:58;49.07;;;29.50;;
6093;SDS011;19964;42.060;24.700;2024-01-07T00:50:25;41.80;;;27.43;;
6093;SDS011;19964;42.060;24.700;2024-01-07T00:52:52;47.67;;;26.63;;
6093;SDS011;19964;42.060;24.700;2024-01-07T00:55:19;40.53;;;25.73;;
6093;SDS011;19964;42.060;24.700;2024-01-07T00:57:47;44.87;;;24.17;;
6093;SDS011;19964;42.060;24.700;2024-01-07T01:00:16;37.37;;;22.53;;
6093;SDS011;19964;42.060;24.700;2024-01-07T01:02:44;52.57;;;28.63;;
6093;SDS011;19964;42.060;24.700;2024-01-07T01:05:11;60.23;;;31.20;;
6093;SDS011;19964;42.060;24.700;2024-01-07T01:07:38;50.83;;;28.90;;
6093;SDS011;19964;42.060;24.700;2024-01-07T01:10:06;47.43;;;28.73;;
6093;SDS011;19964;42.060;24.700;2024-01-07T01:12:33;44.43;;;27.10;;
6093;SDS011;19964;42.060;24.700;2024-01-07T01:15:00;43.77;;;27.00;;
6093;SDS011;19964;42.060;24.700;2024-01-07T01:17:29;42.87;;;24.87;;
6093;SDS011;19964;42.060;24.700;2024-01-07T01:19:56;36.87;;;23.37;;
6093;SDS011;19964;42.060;24.700;2024-01-07T01:22:22;33.90;;;23.10;;
6093;SDS011;19964;42.060;24.700;2024-01-07T01:24:50;38.03;;;21.87;;
6093;SDS011;19964;42.060;24.700;2024-01-07T01:27:18;33.57;;;21.30;;
6093;SDS011;19964;42.060;24.700;2024-01-07T01:29:45;34.83;;;20.77;;
6093;SDS011;19964;42.060;24.700;2024-01-07T01:32:11;31.20;;;19.17;;
6093;SDS011;19964;42.060;24.700;2024-01-07T01:34:40;30.70;;;18.57;;
6093;SDS011;19964;42.060;24.700;2024-01-07T01:37:07;26.57;;;18.23;;
6093;SDS011;19964;42.060;24.700;2024-01-07T01:39:35;25.47;;;16.87;;
6093;SDS011;19964;42.060;24.700;2024-01-07T01:42:02;27.30;;;18.13;;
6093;SDS011;19964;42.060;24.700;2024-01-07T01:44:29;28.27;;;17.37;;
6093;SDS011;19964;42.060;24.700;2024-01-07T01:46:56;31.10;;;17.80;;
6093;SDS011;19964;42.060;24.700;2024-01-07T01:49:25;25.77;;;16.67;;
6093;SDS011;19964;42.060;24.700;2024-01-07T01:51:55;27.30;;;15.03;;
6093;SDS011;19964;42.060;24.700;2024-01-07T01:54:22;20.37;;;12.13;;
6093;SDS011;19964;42.060;24.700;2024-01-07T01:56:49;13.97;;;9.43;;
6093;SDS011;19964;42.060;24.700;2024-01-07T01:59:17;8.17;;;6.27;;
6093;SDS011;19964;42.060;24.700;2024-01-07T02:01:45;11.47;;;7.63;;
6093;SDS011;19964;42.060;24.700;2024-01-07T02:04:12;14.50;;;9.03;;
6093;SDS011;19964;42.060;24.700;2024-01-07T02:06:41;21.70;;;13.63;;
6093;SDS011;19964;42.060;24.700;2024-01-07T02:09:10;30.43;;;18.07;;
6093;SDS011;19964;42.060;24.700;2024-01-07T02:11:37;29.80;;;17.57;;
6093;SDS011;19964;42.060;24.700;2024-01-07T02:14:04;18.07;;;13.47;;
6093;SDS011;19964;42.060;24.700;2024-01-07T02:16:30;14.43;;;10.13;;
6093;SDS011;19964;42.060;24.700;2024-01-07T02:18:58;10.23;;;8.30;;
6093;SDS011;19964;42.060;24.700;2024-01-07T02:21:25;9.13;;;5.70;;
6093;SDS011;19964;42.060;24.700;2024-01-07T02:23:52;7.27;;;5.70;;
6093;SDS011;19964;42.060;24.700;2024-01-07T02:26:20;10.97;;;5.43;;
6093;SDS011;19964;42.060;24.700;2024-01-07T02:28:47;6.70;;;4.90;;
6093;SDS011;19964;42.060;24.700;2024-01-07T02:31:14;5.10;;;4.57;;
6093;SDS011;19964;42.060;24.700;2024-01-07T02:33:41;6.70;;;5.07;;
6093;SDS011;19964;42.060;24.700;2024-01-07T02:36:08;5.03;;;4.47;;
6093;SDS011;19964;42.060;24.700;2024-01-07T02:38:35;4.63;;;4.10;;
6093;SDS011;19964;42.060;24.700;2024-01-07T02:41:02;7.57;;;4.43;;
6093;SDS011;19964;42.060;24.700;2024-01-07T02:43:30;5.53;;;3.87;;
6093;SDS011;19964;42.060;24.700;2024-01-07T02:45:57;4.70;;;3.50;;
6093;SDS011;19964;42.060;24.700;2024-01-07T02:48:24;4.57;;;3.20;;
6093;SDS011;19964;42.060;24.700;2024-01-07T02:50:51;5.90;;;5.33;;
6093;SDS011;19964;42.060;24.700;2024-01-07T02:53:18;10.20;;;5.60;;
6093;SDS011;19964;42.060;24.700;2024-01-07T02:55:45;6.10;;;4.23;;
6093;SDS011;19964;42.060;24.700;2024-01-07T02:58:12;6.10;;;5.10;;
6093;SDS011;19964;42.060;24.700;2024-01-07T03:00:40;4.77;;;2.87;;
6093;SDS011;19964;42.060;24.700;2024-01-07T03:03:07;3.80;;;3.50;;
6093;SDS011;19964;42.060;24.700;2024-01-07T03:05:34;5.77;;;3.87;;
6093;SDS011;19964;42.060;24.700;2024-01-07T03:08:01;8.13;;;3.77;;
6093;SDS011;19964;42.060;24.700;2024-01-07T03:10:28;5.63;;;3.30;;
6093;SDS011;19964;42.060;24.700;2024-01-07T03:12:55;5.40;;;3.50;;
6093;SDS011;19964;42.060;24.700;2024-01-07T03:15:22;8.70;;;5.57;;
6093;SDS011;19964;42.060;24.700;2024-01-07T03:17:50;6.00;;;5.33;;
6093;SDS011;19964;42.060;24.700;2024-01-07T03:20:17;12.33;;;7.90;;
6093;SDS011;19964;42.060;24.700;2024-01-07T03:22:44;10.80;;;6.73;;
6093;SDS011;19964;42.060;24.700;2024-01-07T03:25:11;11.30;;;8.13;;
6093;SDS011;19964;42.060;24.700;2024-01-07T03:27:38;13.33;;;8.80;;
6093;SDS011;19964;42.060;24.700;2024-01-07T03:30:05;11.57;;;7.10;;
6093;SDS011;19964;42.060;24.700;2024-01-07T03:32:33;9.97;;;6.87;;
6093;SDS011;19964;42.060;24.700;2024-01-07T03:35:01;12.27;;;7.90;;
6093;SDS011;19964;42.060;24.700;2024-01-07T03:37:28;11.67;;;8.37;;
6093;SDS011;19964;42.060;24.700;2024-01-07T03:39:55;13.87;;;11.40;;
6093;SDS011;19964;42.060;24.700;2024-01-07T03:42:22;19.30;;;13.10;;
6093;SDS011;19964;42.060;24.700;2024-01-07T03:44:49;21.23;;;14.47;;
6093;SDS011;19964;42.060;24.700;2024-01-07T03:47:16;18.30;;;14.80;;
6093;SDS011;19964;42.060;24.700;2024-01-07T03:49:43;24.00;;;17.33;;
6093;SDS011;19964;42.060;24.700;2024-01-07T03:52:12;24.40;;;17.23;;
6093;SDS011;19964;42.060;24.700;2024-01-07T03:54:39;25.47;;;18.30;;
6093;SDS011;19964;42.060;24.700;2024-01-07T03:57:06;29.37;;;20.53;;
6093;SDS011;19964;42.060;24.700;2024-01-07T03:59:32;35.17;;;22.40;;
6093;SDS011;19964;42.060;24.700;2024-01-07T04:01:59;37.60;;;24.03;;
6093;SDS011;19964;42.060;24.700;2024-01-07T04:04:27;41.67;;;26.00;;
6093;SDS011;19964;42.060;24.700;2024-01-07T04:06:54;43.87;;;27.07;;
6093;SDS011;19964;42.060;24.700;2024-01-07T04:09:22;47.93;;;30.63;;
6093;SDS011;19964;42.060;24.700;2024-01-07T04:11:49;53.80;;;32.80;;
6093;SDS011;19964;42.060;24.700;2024-01-07T04:14:16;48.23;;;32.60;;
6093;SDS011;19964;42.060;24.700;2024-01-07T04:16:43;50.67;;;32.53;;
6093;SDS011;19964;42.060;24.700;2024-01-07T04:19:10;55.77;;;34.13;;
6093;SDS011;19964;42.060;24.700;2024-01-07T04:21:37;60.90;;;34.20;;
6093;SDS011;19964;42.060;24.700;2024-01-07T04:24:04;58.80;;;33.37;;
6093;SDS011;19964;42.060;24.700;2024-01-07T04:26:33;56.93;;;35.97;;
6093;SDS011;19964;42.060;24.700;2024-01-07T04:29:00;55.03;;;34.03;;
6093;SDS011;19964;42.060;24.700;2024-01-07T04:31:26;52.87;;;31.63;;
6093;SDS011;19964;42.060;24.700;2024-01-07T04:33:53;41.60;;;26.70;;
6093;SDS011;19964;42.060;24.700;2024-01-07T04:36:20;34.80;;;22.10;;
6093;SDS011;19964;42.060;24.700;2024-01-07T04:38:47;31.57;;;20.63;;
6093;SDS011;19964;42.060;24.700;2024-01-07T04:41:14;36.50;;;21.20;;
6093;SDS011;19964;42.060;24.700;2024-01-07T04:43:43;28.13;;;19.57;;
6093;SDS011;19964;42.060;24.700;2024-01-07T04:46:10;26.20;;;17.87;;
6093;SDS011;19964;42.060;24.700;2024-01-07T04:48:37;24.70;;;18.43;;
6093;SDS011;19964;42.060;24.700;2024-01-07T04:51:05;26.47;;;17.23;;
6093;SDS011;19964;42.060;24.700;2024-01-07T04:53:32;20.73;;;15.53;;
6093;SDS011;19964;42.060;24.700;2024-01-07T04:55:59;23.63;;;15.47;;
6093;SDS011;19964;42.060;24.700;2024-01-07T04:58:26;19.17;;;12.53;;
6093;SDS011;19964;42.060;24.700;2024-01-07T05:00:54;18.60;;;14.47;;
6093;SDS011;19964;42.060;24.700;2024-01-07T05:03:21;18.20;;;13.73;;
6093;SDS011;19964;42.060;24.700;2024-01-07T05:05:48;17.20;;;13.27;;
6093;SDS011;19964;42.060;24.700;2024-01-07T05:08:15;19.40;;;13.73;;
6093;SDS011;19964;42.060;24.700;2024-01-07T05:10:42;17.80;;;14.53;;
6093;SDS011;19964;42.060;24.700;2024-01-07T05:13:09;18.60;;;14.03;;
6093;SDS011;19964;42.060;24.700;2024-01-07T05:15:36;18.03;;;12.83;;
6093;SDS011;19964;42.060;24.700;2024-01-07T05:18:04;11.70;;;10.30;;
6093;SDS011;19964;42.060;24.700;2024-01-07T05:20:34;12.90;;;9.93;;
6093;SDS011;19964;42.060;24.700;2024-01-07T05:23:01;11.90;;;9.40;;
6093;SDS011;19964;42.060;24.700;2024-01-07T05:25:28;12.57;;;9.60;;
6093;SDS011;19964;42.060;24.700;2024-01-07T05:27:55;9.53;;;8.10;;
6093;SDS011;19964;42.060;24.700;2024-01-07T05:30:22;7.67;;;6.97;;
6093;SDS011;19964;42.060;24.700;2024-01-07T05:32:49;8.93;;;6.67;;
6093;SDS011;19964;42.060;24.700;2024-01-07T05:35:17;6.10;;;5.57;;
6093;SDS011;19964;42.060;24.700;2024-01-07T05:37:45;6.23;;;5.63;;
6093;SDS011;19964;42.060;24.700;2024-01-07T05:40:12;7.53;;;6.20;;
6093;SDS011;19964;42.060;24.700;2024-01-07T05:42:39;6.03;;;5.20;;
6093;SDS011;19964;42.060;24.700;2024-01-07T05:45:06;6.47;;;5.50;;
6093;SDS011;19964;42.060;24.700;2024-01-07T05:47:33;4.53;;;4.17;;
6093;SDS011;19964;42.060;24.700;2024-01-07T05:50:00;4.50;;;4.10;;
6093;SDS011;19964;42.060;24.700;2024-01-07T05:52:29;35.47;;;25.13;;
6093;SDS011;19964;42.060;24.700;2024-01-07T05:54:56;30.27;;;23.53;;
6093;SDS011;19964;42.060;24.700;2024-01-07T05:57:23;43.70;;;29.30;;
6093;SDS011;19964;42.060;24.700;2024-01-07T05:59:50;55.00;;;33.80;;
6093;SDS011;19964;42.060;24.700;2024-01-07T06:02:17;59.90;;;34.13;;
6093;SDS011;19964;42.060;24.700;2024-01-07T06:04:44;71.37;;;35.77;;
6093;SDS011;19964;42.060;24.700;2024-01-07T06:07:11;58.27;;;36.97;;
6093;SDS011;19964;42.060;24.700;2024-01-07T06:09:39;58.47;;;36.07;;
6093;SDS011;19964;42.060;24.700;2024-01-07T06:12:06;54.33;;;32.30;;
6093;SDS011;19964;42.060;24.700;2024-01-07T06:14:33;37.63;;;24.30;;
6093;SDS011;19964;42.060;24.700;2024-01-07T06:17:00;19.47;;;14.70;;
6093;SDS011;19964;42.060;24.700;2024-01-07T06:19:27;25.57;;;15.47;;
6093;SDS011;19964;42.060;24.700;2024-01-07T06:21:56;11.60;;;8.27;;
6093;SDS011;19964;42.060;24.700;2024-01-07T06:24:23;7.60;;;6.00;;
6093;SDS011;19964;42.060;24.700;2024-01-07T06:26:51;9.40;;;8.43;;
6093;SDS011;19964;42.060;24.700;2024-01-07T06:29:18;8.00;;;7.20;;
6093;SDS011;19964;42.060;24.700;2024-01-07T06:31:45;6.53;;;5.93;;
6093;SDS011;19964;42.060;24.700;2024-01-07T06:34:12;10.77;;;9.00;;
6093;SDS011;19964;42.060;24.700;2024-01-07T06:36:40;27.53;;;20.63;;
6093;SDS011;19964;42.060;24.700;2024-01-07T06:39:07;36.03;;;23.27;;
6093;SDS011;19964;42.060;24.700;2024-01-07T06:41:34;24.77;;;18.50;;
6093;SDS011;19964;42.060;24.700;2024-01-07T06:44:02;28.57;;;19.70;;
6093;SDS011;19964;42.060;24.700;2024-01-07T06:46:30;27.63;;;18.00;;
6093;SDS011;19964;42.060;24.700;2024-01-07T06:48:59;21.50;;;14.50;;
6093;SDS011;19964;42.060;24.700;2024-01-07T06:51:26;18.30;;;13.13;;
6093;SDS011;19964;42.060;24.700;2024-01-07T06:53:53;13.00;;;10.23;;
6093;SDS011;19964;42.060;24.700;2024-01-07T06:56:20;11.60;;;9.73;;
6093;SDS011;19964;42.060;24.700;2024-01-07T06:58:47;12.07;;;9.10;;
6093;SDS011;19964;42.060;24.700;2024-01-07T07:01:18;13.57;;;9.83;;
6093;SDS011;19964;42.060;24.700;2024-01-07T07:03:47;9.70;;;8.60;;
6093;SDS011;19964;42.060;24.700;2024-01-07T07:06:14;10.47;;;8.37;;
6093;SDS011;19964;42.060;24.700;2024-01-07T07:08:41;9.23;;;7.97;;
6093;SDS011;19964;42.060;24.700;2024-01-07T07:11:08;10.93;;;7.93;;
6093;SDS011;19964;42.060;24.700;2024-01-07T07:13:35;8.23;;;6.60;;
6093;SDS011;19964;42.060;24.700;2024-01-07T07:16:03;7.10;;;5.97;;
6093;SDS011;19964;42.060;24.700;2024-01-07T07:18:32;9.50;;;8.60;;
6093;SDS011;19964;42.060;24.700;2024-01-07T07:20:59;6.17;;;4.80;;
6093;SDS011;19964;42.060;24.700;2024-01-07T07:23:26;5.33;;;4.83;;
6093;SDS011;19964;42.060;24.700;2024-01-07T07:25:53;5.30;;;4.90;;
6093;SDS011;19964;42.060;24.700;2024-01-07T07:28:21;5.83;;;5.33;;
6093;SDS011;19964;42.060;24.700;2024-01-07T07:30:48;7.63;;;4.73;;
6093;SDS011;19964;42.060;24.700;2024-01-07T07:33:15;5.17;;;4.67;;
6093;SDS011;19964;42.060;24.700;2024-01-07T07:35:43;5.23;;;4.83;;
6093;SDS011;19964;42.060;24.700;2024-01-07T07:38:11;4.80;;;4.40;;
6093;SDS011;19964;42.060;24.700;2024-01-07T07:40:38;5.60;;;3.93;;
6093;SDS011;19964;42.060;24.700;2024-01-07T07:43:05;4.50;;;4.07;;
6093;SDS011;19964;42.060;24.700;2024-01-07T07:45:32;5.60;;;3.93;;
6093;SDS011;19964;42.060;24.700;2024-01-07T07:47:59;3.60;;;3.30;;
6093;SDS011;19964;42.060;24.700;2024-01-07T07:50:26;4.10;;;3.27;;
6093;SDS011;19964;42.060;24.700;2024-01-07T07:52:54;3.80;;;3.37;;
6093;SDS011;19964;42.060;24.700;2024-01-07T07:55:21;3.63;;;3.33;;
6093;SDS011;19964;42.060;24.700;2024-01-07T07:57:48;4.87;;;4.00;;
6093;SDS011;19964;42.060;24.700;2024-01-07T08:00:17;3.17;;;2.97;;
6093;SDS011;19964;42.060;24.700;2024-01-07T08:02:44;6.63;;;3.97;;
6093;SDS011;19964;42.060;24.700;2024-01-07T08:05:11;4.47;;;4.07;;
6093;SDS011;19964;42.060;24.700;2024-01-07T08:07:39;4.47;;;4.10;;
6093;SDS011;19964;42.060;24.700;2024-01-07T08:10:08;4.40;;;4.00;;
6093;SDS011;19964;42.060;24.700;2024-01-07T08:12:35;6.40;;;4.00;;
6093;SDS011;19964;42.060;24.700;2024-01-07T08:15:02;4.10;;;3.70;;
6093;SDS011;19964;42.060;24.700;2024-01-07T08:17:31;5.47;;;4.83;;
6093;SDS011;19964;42.060;24.700;2024-01-07T08:19:57;13.13;;;8.30;;
6093;SDS011;19964;42.060;24.700;2024-01-07T08:22:26;7.50;;;6.77;;
6093;SDS011;19964;42.060;24.700;2024-01-07T08:24:53;30.20;;;22.70;;
6093;SDS011;19964;42.060;24.700;2024-01-07T08:27:21;15.70;;;13.27;;
6093;SDS011;19964;42.060;24.700;2024-01-07T08:29:48;10.60;;;9.50;;
6093;SDS011;19964;42.060;24.700;2024-01-07T08:32:15;7.77;;;6.80;;
6093;SDS011;19964;42.060;24.700;2024-01-07T08:34:42;12.27;;;10.80;;
6093;SDS011;19964;42.060;24.700;2024-01-07T08:37:09;5.30;;;4.80;;
6093;SDS011;19964;42.060;24.700;2024-01-07T08:39:36;9.70;;;8.70;;
6093;SDS011;19964;42.060;24.700;2024-01-07T08:42:04;15.00;;;13.10;;
6093;SDS011;19964;42.060;24.700;2024-01-07T08:44:32;17.40;;;14.07;;
6093;SDS011;19964;42.060;24.700;2024-01-07T08:46:59;16.30;;;13.73;;
6093;SDS011;19964;42.060;24.700;2024-01-07T08:49:27;17.47;;;14.93;;
6093;SDS011;19964;42.060;24.700;2024-01-07T08:51:54;18.90;;;15.33;;
6093;SDS011;19964;42.060;24.700;2024-01-07T08:54:22;20.90;;;16.37;;
6093;SDS011;19964;42.060;24.700;2024-01-07T08:56:49;26.97;;;17.97;;
6093;SDS011;19964;42.060;24.700;2024-01-07T08:59:16;20.00;;;16.47;;
6093;SDS011;19964;42.060;24.700;2024-01-07T09:01:45;17.03;;;14.97;;
6093;SDS011;19964;42.060;24.700;2024-01-07T09:04:12;18.83;;;15.17;;
6093;SDS011;19964;42.060;24.700;2024-01-07T09:06:39;11.77;;;10.50;;
6093;SDS011;19964;42.060;24.700;2024-01-07T09:09:06;4.87;;;4.47;;
6093;SDS011;19964;42.060;24.700;2024-01-07T09:11:33;4.73;;;3.27;;
6093;SDS011;19964;42.060;24.700;2024-01-07T09:14:01;5.10;;;4.27;;
6093;SDS011;19964;42.060;24.700;2024-01-07T09:16:29;5.50;;;5.00;;
6093;SDS011;19964;42.060;24.700;2024-01-07T09:18:57;5.00;;;3.70;;
6093;SDS011;19964;42.060;24.700;2024-01-07T09:21:24;8.07;;;6.70;;
6093;SDS011;19964;42.060;24.700;2024-01-07T09:23:51;17.17;;;13.93;;
6093;SDS011;19964;42.060;24.700;2024-01-07T09:26:18;20.87;;;14.30;;
6093;SDS011;19964;42.060;24.700;2024-01-07T09:28:45;20.83;;;16.47;;
6093;SDS011;19964;42.060;24.700;2024-01-07T09:31:12;18.43;;;14.97;;
6093;SDS011;19964;42.060;24.700;2024-01-07T09:33:40;14.33;;;11.17;;
6093;SDS011;19964;42.060;24.700;2024-01-07T09:36:09;13.20;;;11.57;;
6093;SDS011;19964;42.060;24.700;2024-01-07T09:38:36;13.60;;;8.87;;
6093;SDS011;19964;42.060;24.700;2024-01-07T09:41:03;8.40;;;6.87;;
6093;SDS011;19964;42.060;24.700;2024-01-07T09:43:30;8.20;;;6.20;;
6093;SDS011;19964;42.060;24.700;2024-01-07T09:45:57;5.90;;;5.40;;
6093;SDS011;19964;42.060;24.700;2024-01-07T09:48:24;6.43;;;5.93;;
6093;SDS011;19964;42.060;24.700;2024-01-07T09:50:52;6.33;;;5.67;;
6093;SDS011;19964;42.060;24.700;2024-01-07T09:53:20;9.20;;;7.50;;
6093;SDS011;19964;42.060;24.700;2024-01-07T09:55:52;10.13;;;7.70;;
6093;SDS011;19964;42.060;24.700;2024-01-07T09:58:28;9.50;;;7.33;;
6093;SDS011;19964;42.060;24.700;2024-01-07T10:00:55;9.97;;;6.90;;
6093;SDS011;19964;42.060;24.700;2024-01-07T10:03:22;14.90;;;10.07;;
6093;SDS011;19964;42.060;24.700;2024-01-07T10:05:49;14.33;;;11.20;;
6093;SDS011;19964;42.060;24.700;2024-01-07T10:08:16;19.83;;;13.63;;
6093;SDS011;19964;42.060;24.700;2024-01-07T10:10:45;22.23;;;15.20;;
6093;SDS011;19964;42.060;24.700;2024-01-07T10:13:11;26.03;;;18.00;;
6093;SDS011;19964;42.060;24.700;2024-01-07T10:15:38;32.33;;;21.13;;
6093;SDS011;19964;42.060;24.700;2024-01-07T10:18:06;32.13;;;23.87;;
6093;SDS011;19964;42.060;24.700;2024-01-07T10:20:34;33.23;;;23.70;;
6093;SDS011;19964;42.060;24.700;2024-01-07T10:23:01;31.13;;;22.67;;
6093;SDS011;19964;42.060;24.700;2024-01-07T10:25:30;31.13;;;21.93;;
6093;SDS011;19964;42.060;24.700;2024-01-07T10:28:00;32.20;;;21.97;;
6093;SDS011;19964;42.060;24.700;2024-01-07T10:30:27;26.23;;;19.70;;
6093;SDS011;19964;42.060;24.700;2024-01-07T10:32:57;30.40;;;22.00;;
6093;SDS011;19964;42.060;24.700;2024-01-07T10:35:27;25.50;;;18.70;;
6093;SDS011;19964;42.060;24.700;2024-01-07T10:37:59;29.40;;;20.77;;
6093;SDS011;19964;42.060;24.700;2024-01-07T10:40:26;28.40;;;18.50;;
6093;SDS011;19964;42.060;24.700;2024-01-07T10:42:54;24.50;;;16.03;;
6093;SDS011;19964;42.060;24.700;2024-01-07T10:45:23;15.17;;;12.43;;
6093;SDS011;19964;42.060;24.700;2024-01-07T10:47:51;16.10;;;12.50;;
6093;SDS011;19964;42.060;24.700;2024-01-07T10:50:21;21.13;;;12.30;;
6093;SDS011;19964;42.060;24.700;2024-01-07T10:52:49;14.97;;;10.00;;
6093;SDS011;19964;42.060;24.700;2024-01-07T10:55:18;11.20;;;8.87;;
6093;SDS011;19964;42.060;24.700;2024-01-07T10:57:46;11.63;;;7.23;;
6093;SDS011;19964;42.060;24.700;2024-01-07T11:00:15;8.90;;;6.37;;
6093;SDS011;19964;42.060;24.700;2024-01-07T11:02:51;6.60;;;5.90;;
6093;SDS011;19964;42.060;24.700;2024-01-07T11:05:27;7.47;;;6.20;;
6093;SDS011;19964;42.060;24.700;2024-01-07T11:08:03;4.17;;;3.87;;
6093;SDS011;19964;42.060;24.700;2024-01-07T11:10:35;6.23;;;5.63;;
6093;SDS011;19964;42.060;24.700;2024-01-07T11:13:06;6.07;;;5.33;;
6093;SDS011;19964;42.060;24.700;2024-01-07T11:15:51;8.13;;;5.87;;
6093;SDS011;19964;42.060;24.700;2024-01-07T11:18:21;8.23;;;5.90;;
6093;SDS011;19964;42.060;24.700;2024-01-07T11:20:49;7.27;;;4.70;;
6093;SDS011;19964;42.060;24.700;2024-01-07T11:26:01;9.03;;;7.77;;
6093;SDS011;19964;42.060;24.700;2024-01-07T11:28:44;8.67;;;5.63;;
6093;SDS011;19964;42.060;24.700;2024-01-07T11:31:13;7.47;;;5.50;;
6093;SDS011;19964;42.060;24.700;2024-01-07T11:33:43;8.80;;;5.77;;
6093;SDS011;19964;42.060;24.700;2024-01-07T11:36:11;9.77;;;6.87;;
6093;SDS011;19964;42.060;24.700;2024-01-07T11:38:41;8.17;;;4.93;;
6093;SDS011;19964;42.060;24.700;2024-01-07T11:41:09;5.70;;;3.70;;
6093;SDS011;19964;42.060;24.700;2024-01-07T11:43:38;3.97;;;3.60;;
6093;SDS011;19964;42.060;24.700;2024-01-07T11:46:20;3.90;;;3.20;;
6093;SDS011;19964;42.060;24.700;2024-01-07T11:48:49;5.50;;;3.20;;
6093;SDS011;19964;42.060;24.700;2024-01-07T11:51:16;3.93;;;3.00;;
6093;SDS011;19964;42.060;24.700;2024-01-07T11:53:45;3.87;;;3.47;;
6093;SDS011;19964;42.060;24.700;2024-01-07T11:56:14;10.30;;;5.13;;
6093;SDS011;19964;42.060;24.700;2024-01-07T11:58:41;7.97;;;6.23;;
6093;SDS011;19964;42.060;24.700;2024-01-07T12:01:08;4.43;;;4.03;;
6093;SDS011;19964;42.060;24.700;2024-01-07T12:03:35;5.73;;;4.07;;
6093;SDS011;19964;42.060;24.700;2024-01-07T12:06:03;4.80;;;4.30;;
6093;SDS011;19964;42.060;24.700;2024-01-07T12:08:31;5.73;;;4.00;;
6093;SDS011;19964;42.060;24.700;2024-01-07T12:10:59;10.50;;;7.83;;
6093;SDS011;19964;42.060;24.700;2024-01-07T12:13:26;13.10;;;5.83;;
6093;SDS011;19964;42.060;24.700;2024-01-07T12:15:54;6.87;;;5.40;;
6093;SDS011;19964;42.060;24.700;2024-01-07T12:18:21;7.90;;;5.20;;
6093;SDS011;19964;42.060;24.700;2024-01-07T12:20:54;4.70;;;4.27;;
6093;SDS011;19964;42.060;24.700;2024-01-07T12:23:24;6.90;;;5.00;;
6093;SDS011;19964;42.060;24.700;2024-01-07T12:25:51;6.43;;;4.53;;
6093;SDS011;19964;42.060;24.700;2024-01-07T12:28:18;6.93;;;4.60;;
6093;SDS011;19964;42.060;24.700;2024-01-07T12:30:47;7.07;;;6.37;;
6093;SDS011;19964;42.060;24.700;2024-01-07T12:33:15;9.60;;;6.00;;
6093;SDS011;19964;42.060;24.700;2024-01-07T12:35:44;7.17;;;5.43;;
6093;SDS011;19964;42.060;24.700;2024-01-07T12:38:11;5.53;;;4.50;;
6093;SDS011;19964;42.060;24.700;2024-01-07T12:40:40;6.73;;;4.80;;
6093;SDS011;19964;42.060;24.700;2024-01-07T12:43:07;7.10;;;4.80;;
6093;SDS011;19964;42.060;24.700;2024-01-07T12:45:34;5.03;;;4.37;;
6093;SDS011;19964;42.060;24.700;2024-01-07T12:48:01;5.43;;;4.87;;
6093;SDS011;19964;42.060;24.700;2024-01-07T12:50:28;5.03;;;4.53;;
6093;SDS011;19964;42.060;24.700;2024-01-07T12:52:56;4.53;;;3.97;;
6093;SDS011;19964;42.060;24.700;2024-01-07T12:55:24;4.97;;;4.40;;
6093;SDS011;19964;42.060;24.700;2024-01-07T12:57:53;9.50;;;4.47;;
6093;SDS011;19964;42.060;24.700;2024-01-07T13:00:21;4.30;;;3.90;;
6093;SDS011;19964;42.060;24.700;2024-01-07T13:02:48;4.40;;;3.97;;
6093;SDS011;19964;42.060;24.700;2024-01-07T13:05:16;62.73;;;22.07;;
6093;SDS011;19964;42.060;24.700;2024-01-07T13:07:44;8.10;;;4.40;;
6093;SDS011;19964;42.060;24.700;2024-01-07T13:10:11;5.70;;;4.10;;
6093;SDS011;19964;42.060;24.700;2024-01-07T13:12:38;4.50;;;3.27;;
6093;SDS011;19964;42.060;24.700;2024-01-07T13:15:07;4.70;;;2.83;;
6093;SDS011;19964;42.060;24.700;2024-01-07T13:17:34;6.30;;;2.93;;
6093;SDS011;19964;42.060;24.700;2024-01-07T13:20:01;3.50;;;3.20;;
6093;SDS011;19964;42.060;24.700;2024-01-07T13:22:31;4.03;;;3.03;;
6093;SDS011;19964;42.060;24.700;2024-01-07T13:24:58;6.20;;;3.00;;
6093;SDS011;19964;42.060;24.700;2024-01-07T13:27:25;3.53;;;2.60;;
6093;SDS011;19964;42.060;24.700;2024-01-07T13:29:52;4.47;;;2.87;;
6093;SDS011;19964;42.060;24.700;2024-01-07T13:32:21;8.30;;;5.97;;
6093;SDS011;19964;42.060;24.700;2024-01-07T13:34:48;3.60;;;2.97;;
6093;SDS011;19964;42.060;24.700;2024-01-07T13:37:15;5.60;;;4.80;;
6093;SDS011;19964;42.060;24.700;2024-01-07T13:39:42;3.30;;;2.67;;
6093;SDS011;19964;42.060;24.700;2024-01-07T13:42:09;5.07;;;2.60;;
6093;SDS011;19964;42.060;24.700;2024-01-07T13:44:36;7.13;;;2.60;;
6093;SDS011;19964;42.060;24.700;2024-01-07T13:47:11;3.80;;;2.20;;
6093;SDS011;19964;42.060;24.700;2024-01-07T13:49:40;3.63;;;2.40;;
6093;SDS011;19964;42.060;24.700;2024-01-07T13:52:07;22.67;;;15.07;;
6093;SDS011;19964;42.060;24.700;2024-01-07T13:54:35;4.03;;;3.20;;
6093;SDS011;19964;42.060;24.700;2024-01-07T13:57:02;6.93;;;2.50;;
6093;SDS011;19964;42.060;24.700;2024-01-07T13:59:30;2.70;;;2.10;;
6093;SDS011;19964;42.060;24.700;2024-01-07T14:01:57;4.53;;;2.20;;
6093;SDS011;19964;42.060;24.700;2024-01-07T14:04:24;5.40;;;2.30;;
6093;SDS011;19964;42.060;24.700;2024-01-07T14:06:54;3.37;;;2.03;;
6093;SDS011;19964;42.060;24.700;2024-01-07T14:09:22;3.33;;;2.23;;
6093;SDS011;19964;42.060;24.700;2024-01-07T14:11:52;4.93;;;2.20;;
6093;SDS011;19964;42.060;24.700;2024-01-07T14:14:20;4.37;;;1.93;;
6093;SDS011;19964;42.060;24.700;2024-01-07T14:16:48;4.93;;;2.23;;
6093;SDS011;19964;42.060;24.700;2024-01-07T14:19:17;2.53;;;2.00;;
6093;SDS011;19964;42.060;24.700;2024-01-07T14:21:45;5.60;;;1.77;;
6093;SDS011;19964;42.060;24.700;2024-01-07T14:24:14;3.93;;;2.00;;
6093;SDS011;19964;42.060;24.700;2024-01-07T14:26:41;3.23;;;1.90;;
6093;SDS011;19964;42.060;24.700;2024-01-07T14:29:08;4.40;;;1.93;;
6093;SDS011;19964;42.060;24.700;2024-01-07T14:31:35;3.07;;;1.80;;
6093;SDS011;19964;42.060;24.700;2024-01-07T14:34:02;4.67;;;1.90;;
6093;SDS011;19964;42.060;24.700;2024-01-07T14:36:29;2.63;;;1.50;;
6093;SDS011;19964;42.060;24.700;2024-01-07T14:38:56;3.33;;;2.00;;
6093;SDS011;19964;42.060;24.700;2024-01-07T14:41:25;4.13;;;1.83;;